Flint, Michigan
Current Conditions -  °F | °C
As of 7:53 AM on Monday 20 Oct 2014 (Local Time) from KFNT Reporting Station
Overcast Overcast  
Wind Chill: 50°   Ceiling: 5500
Heat Index: 50°   Visibility: 10mi
Dew Point: 43°   Wind: 9mph
Humidity: 77%   Direction: 200°SSW
Pressure: 29.83"   Gusts: NA
Location:  43.01°N, 83.68°W
Report Text: KFNT 201153Z 20008KT 10SM OVC055 10/06 A2983 RMK AO2 SLP104 60001 70001 T01000061 10100 20094 58010
Loading
Personal Weather Stations






























Interactive Weather Map
Tropical Storm Tracking
New forecast layout! Learn more

10-Day Weather Forecast

Advertisements
Track Severe Weather on mobile